sensor_id;sensor_type;location;lat;lon;timestamp;temperature;humidity
12815;DHT22;6472;52.328;13.070;2023-04-24T00:02:16;7.90;99.90
12815;DHT22;6472;52.328;13.070;2023-04-24T00:04:45;8.00;99.90
12815;DHT22;6472;52.328;13.070;2023-04-24T00:07:15;8.00;99.90
12815;DHT22;6472;52.328;13.070;2023-04-24T00:09:43;8.00;99.90
12815;DHT22;6472;52.328;13.070;2023-04-24T00:12:11;8.00;99.90
12815;DHT22;6472;52.328;13.070;2023-04-24T00:14:39;8.00;99.90
12815;DHT22;6472;52.328;13.070;2023-04-24T00:17:07;8.10;99.90
12815;DHT22;6472;52.328;13.070;2023-04-24T00:19:35;8.10;99.90
12815;DHT22;6472;52.328;13.070;2023-04-24T00:22:03;8.10;99.90
12815;DHT22;6472;52.328;13.070;2023-04-24T00:24:33;8.20;99.90
12815;DHT22;6472;52.328;13.070;2023-04-24T00:27:01;8.20;99.90
12815;DHT22;6472;52.328;13.070;2023-04-24T00:29:29;8.20;99.90
12815;DHT22;6472;52.328;13.070;2023-04-24T00:31:57;8.20;99.90
12815;DHT22;6472;52.328;13.070;2023-04-24T00:34:25;8.20;99.90
12815;DHT22;6472;52.328;13.070;2023-04-24T00:36:53;8.30;99.90
12815;DHT22;6472;52.328;13.070;2023-04-24T00:39:21;8.30;99.90
12815;DHT22;6472;52.328;13.070;2023-04-24T00:41:51;8.30;99.90
12815;DHT22;6472;52.328;13.070;2023-04-24T00:44:20;8.40;99.90
12815;DHT22;6472;52.328;13.070;2023-04-24T00:46:48;8.50;99.90
12815;DHT22;6472;52.328;13.070;2023-04-24T00:49:21;8.50;99.90
12815;DHT22;6472;52.328;13.070;2023-04-24T00:51:49;8.50;99.90
12815;DHT22;6472;52.328;13.070;2023-04-24T00:54:18;8.50;99.90
12815;DHT22;6472;52.328;13.070;2023-04-24T00:56:46;8.50;99.90
12815;DHT22;6472;52.328;13.070;2023-04-24T00:59:16;8.50;99.90
12815;DHT22;6472;52.328;13.070;2023-04-24T01:01:44;8.50;99.90
12815;DHT22;6472;52.328;13.070;2023-04-24T01:04:13;8.50;99.90
12815;DHT22;6472;52.328;13.070;2023-04-24T01:06:43;8.50;99.90
12815;DHT22;6472;52.328;13.070;2023-04-24T01:09:12;8.50;99.90
12815;DHT22;6472;52.328;13.070;2023-04-24T01:11:41;8.40;99.90
12815;DHT22;6472;52.328;13.070;2023-04-24T01:14:09;8.40;99.90
12815;DHT22;6472;52.328;13.070;2023-04-24T01:16:41;8.40;99.90
12815;DHT22;6472;52.328;13.070;2023-04-24T01:19:10;8.40;99.90
12815;DHT22;6472;52.328;13.070;2023-04-24T01:21:38;8.40;99.90
12815;DHT22;6472;52.328;13.070;2023-04-24T01:24:08;8.40;99.90
12815;DHT22;6472;52.328;13.070;2023-04-24T01:26:36;8.30;99.90
12815;DHT22;6472;52.328;13.070;2023-04-24T01:29:04;8.30;99.90
12815;DHT22;6472;52.328;13.070;2023-04-24T01:31:32;8.30;99.90
12815;DHT22;6472;52.328;13.070;2023-04-24T01:34:00;8.30;99.90
12815;DHT22;6472;52.328;13.070;2023-04-24T01:36:28;8.30;99.90
12815;DHT22;6472;52.328;13.070;2023-04-24T01:38:58;8.30;99.90
12815;DHT22;6472;52.328;13.070;2023-04-24T01:41:28;8.20;99.90
12815;DHT22;6472;52.328;13.070;2023-04-24T01:43:57;8.20;99.90
12815;DHT22;6472;52.328;13.070;2023-04-24T01:46:26;8.30;99.90
12815;DHT22;6472;52.328;13.070;2023-04-24T01:48:54;8.20;99.90
12815;DHT22;6472;52.328;13.070;2023-04-24T01:51:22;8.30;99.90
12815;DHT22;6472;52.328;13.070;2023-04-24T01:53:51;8.20;99.90
12815;DHT22;6472;52.328;13.070;2023-04-24T01:56:20;8.20;99.90
12815;DHT22;6472;52.328;13.070;2023-04-24T01:58:52;8.20;99.90
12815;DHT22;6472;52.328;13.070;2023-04-24T02:01:21;8.20;99.90
12815;DHT22;6472;52.328;13.070;2023-04-24T02:03:50;8.20;99.90
12815;DHT22;6472;52.328;13.070;2023-04-24T02:06:18;8.20;99.90
12815;DHT22;6472;52.328;13.070;2023-04-24T02:08:46;8.20;99.90
12815;DHT22;6472;52.328;13.070;2023-04-24T02:11:14;8.20;99.90
12815;DHT22;6472;52.328;13.070;2023-04-24T02:13:42;8.20;99.90
12815;DHT22;6472;52.328;13.070;2023-04-24T02:16:11;8.20;99.90
12815;DHT22;6472;52.328;13.070;2023-04-24T02:18:39;8.30;99.90
12815;DHT22;6472;52.328;13.070;2023-04-24T02:21:07;8.20;99.90
12815;DHT22;6472;52.328;13.070;2023-04-24T02:23:35;8.30;99.90
12815;DHT22;6472;52.328;13.070;2023-04-24T02:26:03;8.30;99.90
12815;DHT22;6472;52.328;13.070;2023-04-24T02:28:31;8.30;99.90
12815;DHT22;6472;52.328;13.070;2023-04-24T02:30:59;8.40;99.90
12815;DHT22;6472;52.328;13.070;2023-04-24T02:33:29;8.40;99.90
12815;DHT22;6472;52.328;13.070;2023-04-24T02:35:57;8.40;99.90
12815;DHT22;6472;52.328;13.070;2023-04-24T02:38:25;8.50;99.90
12815;DHT22;6472;52.328;13.070;2023-04-24T02:40:52;8.50;99.90
12815;DHT22;6472;52.328;13.070;2023-04-24T02:43:20;8.50;99.90
12815;DHT22;6472;52.328;13.070;2023-04-24T02:45:48;8.50;99.90
12815;DHT22;6472;52.328;13.070;2023-04-24T02:48:17;8.50;99.90
12815;DHT22;6472;52.328;13.070;2023-04-24T02:50:46;8.60;99.90
12815;DHT22;6472;52.328;13.070;2023-04-24T02:53:14;8.60;99.90
12815;DHT22;6472;52.328;13.070;2023-04-24T02:55:42;8.60;99.90
12815;DHT22;6472;52.328;13.070;2023-04-24T02:58:10;8.60;99.90
12815;DHT22;6472;52.328;13.070;2023-04-24T03:00:39;8.60;99.90
12815;DHT22;6472;52.328;13.070;2023-04-24T03:03:07;8.70;99.90
12815;DHT22;6472;52.328;13.070;2023-04-24T03:05:35;8.70;99.90
12815;DHT22;6472;52.328;13.070;2023-04-24T03:08:05;8.80;99.90
12815;DHT22;6472;52.328;13.070;2023-04-24T03:10:32;8.80;99.90
12815;DHT22;6472;52.328;13.070;2023-04-24T03:13:00;8.80;99.90
12815;DHT22;6472;52.328;13.070;2023-04-24T03:15:28;8.80;99.90
12815;DHT22;6472;52.328;13.070;2023-04-24T03:17:56;8.80;99.90
12815;DHT22;6472;52.328;13.070;2023-04-24T03:20:24;8.90;99.90
12815;DHT22;6472;52.328;13.070;2023-04-24T03:22:52;8.90;99.90
12815;DHT22;6472;52.328;13.070;2023-04-24T03:25:22;8.90;99.90
12815;DHT22;6472;52.328;13.070;2023-04-24T03:27:50;9.00;99.90
12815;DHT22;6472;52.328;13.070;2023-04-24T03:30:18;9.00;99.90
12815;DHT22;6472;52.328;13.070;2023-04-24T03:32:46;9.00;99.90
12815;DHT22;6472;52.328;13.070;2023-04-24T03:35:14;9.10;99.90
12815;DHT22;6472;52.328;13.070;2023-04-24T03:37:42;9.10;99.90
12815;DHT22;6472;52.328;13.070;2023-04-24T03:40:10;9.10;99.90
12815;DHT22;6472;52.328;13.070;2023-04-24T03:42:39;9.10;99.90
12815;DHT22;6472;52.328;13.070;2023-04-24T03:45:08;9.10;99.90
12815;DHT22;6472;52.328;13.070;2023-04-24T03:47:37;9.10;99.90
12815;DHT22;6472;52.328;13.070;2023-04-24T03:50:05;9.10;99.90
12815;DHT22;6472;52.328;13.070;2023-04-24T03:52:33;9.10;99.90
12815;DHT22;6472;52.328;13.070;2023-04-24T03:55:01;9.10;99.90
12815;DHT22;6472;52.328;13.070;2023-04-24T03:57:29;9.10;99.90
12815;DHT22;6472;52.328;13.070;2023-04-24T03:59:59;9.00;99.90
12815;DHT22;6472;52.328;13.070;2023-04-24T04:02:30;8.90;99.90
12815;DHT22;6472;52.328;13.070;2023-04-24T04:04:58;8.80;99.90
12815;DHT22;6472;52.328;13.070;2023-04-24T04:07:27;8.80;99.90
12815;DHT22;6472;52.328;13.070;2023-04-24T04:09:56;8.70;99.90
12815;DHT22;6472;52.328;13.070;2023-04-24T04:12:24;8.70;99.90
12815;DHT22;6472;52.328;13.070;2023-04-24T04:14:52;8.60;99.90
12815;DHT22;6472;52.328;13.070;2023-04-24T04:17:21;8.60;99.90
12815;DHT22;6472;52.328;13.070;2023-04-24T04:19:49;8.60;99.90
12815;DHT22;6472;52.328;13.070;2023-04-24T04:22:17;8.60;99.90
12815;DHT22;6472;52.328;13.070;2023-04-24T04:24:45;8.60;99.90
12815;DHT22;6472;52.328;13.070;2023-04-24T04:27:13;8.60;99.90
12815;DHT22;6472;52.328;13.070;2023-04-24T04:29:43;8.60;99.90
12815;DHT22;6472;52.328;13.070;2023-04-24T04:32:11;8.70;99.90
12815;DHT22;6472;52.328;13.070;2023-04-24T04:34:40;8.80;99.90
12815;DHT22;6472;52.328;13.070;2023-04-24T04:37:09;8.90;99.90
12815;DHT22;6472;52.328;13.070;2023-04-24T04:39:37;8.90;99.90
12815;DHT22;6472;52.328;13.070;2023-04-24T04:42:06;9.00;99.90
12815;DHT22;6472;52.328;13.070;2023-04-24T04:44:34;9.10;99.90
12815;DHT22;6472;52.328;13.070;2023-04-24T04:47:02;9.20;99.90
12815;DHT22;6472;52.328;13.070;2023-04-24T04:49:32;9.30;99.90
12815;DHT22;6472;52.328;13.070;2023-04-24T04:52:02;9.50;99.90
12815;DHT22;6472;52.328;13.070;2023-04-24T04:54:29;9.80;99.90
12815;DHT22;6472;52.328;13.070;2023-04-24T04:56:58;9.70;99.90
12815;DHT22;6472;52.328;13.070;2023-04-24T04:59:29;9.90;99.90
12815;DHT22;6472;52.328;13.070;2023-04-24T05:01:57;10.00;99.90
12815;DHT22;6472;52.328;13.070;2023-04-24T05:04:25;10.10;99.90
12815;DHT22;6472;52.328;13.070;2023-04-24T05:06:54;10.20;99.90
12815;DHT22;6472;52.328;13.070;2023-04-24T05:09:24;10.20;99.90
12815;DHT22;6472;52.328;13.070;2023-04-24T05:11:53;10.50;99.90
12815;DHT22;6472;52.328;13.070;2023-04-24T05:14:22;10.60;99.90
12815;DHT22;6472;52.328;13.070;2023-04-24T05:16:50;10.80;99.90
12815;DHT22;6472;52.328;13.070;2023-04-24T05:19:18;10.90;99.90
12815;DHT22;6472;52.328;13.070;2023-04-24T05:21:46;11.20;99.90
12815;DHT22;6472;52.328;13.070;2023-04-24T05:24:13;11.50;99.90
12815;DHT22;6472;52.328;13.070;2023-04-24T05:26:43;11.70;99.90
12815;DHT22;6472;52.328;13.070;2023-04-24T05:29:11;11.90;99.90
12815;DHT22;6472;52.328;13.070;2023-04-24T05:31:39;12.10;99.90
12815;DHT22;6472;52.328;13.070;2023-04-24T05:34:07;12.30;99.90
12815;DHT22;6472;52.328;13.070;2023-04-24T05:36:36;12.20;99.90
12815;DHT22;6472;52.328;13.070;2023-04-24T05:39:04;12.20;99.90
12815;DHT22;6472;52.328;13.070;2023-04-24T05:41:34;12.50;99.90
12815;DHT22;6472;52.328;13.070;2023-04-24T05:44:03;12.90;99.90
12815;DHT22;6472;52.328;13.070;2023-04-24T05:46:31;13.10;99.90
12815;DHT22;6472;52.328;13.070;2023-04-24T05:48:59;13.30;99.90
12815;DHT22;6472;52.328;13.070;2023-04-24T05:51:27;13.50;99.90
12815;DHT22;6472;52.328;13.070;2023-04-24T05:53:55;13.60;99.90
12815;DHT22;6472;52.328;13.070;2023-04-24T05:56:23;13.70;99.90
12815;DHT22;6472;52.328;13.070;2023-04-24T05:58:51;13.60;99.90
12815;DHT22;6472;52.328;13.070;2023-04-24T06:01:21;13.70;99.90
12815;DHT22;6472;52.328;13.070;2023-04-24T06:03:49;14.00;99.90
12815;DHT22;6472;52.328;13.070;2023-04-24T06:06:17;14.20;99.90
12815;DHT22;6472;52.328;13.070;2023-04-24T06:08:45;14.50;99.90
12815;DHT22;6472;52.328;13.070;2023-04-24T06:11:13;15.10;99.90
12815;DHT22;6472;52.328;13.070;2023-04-24T06:13:41;16.00;99.90
12815;DHT22;6472;52.328;13.070;2023-04-24T06:16:10;16.70;99.90
12815;DHT22;6472;52.328;13.070;2023-04-24T06:18:39;17.20;99.90
12815;DHT22;6472;52.328;13.070;2023-04-24T06:21:07;17.70;99.90
12815;DHT22;6472;52.328;13.070;2023-04-24T06:23:35;17.60;99.90
12815;DHT22;6472;52.328;13.070;2023-04-24T06:26:03;17.40;99.90
12815;DHT22;6472;52.328;13.070;2023-04-24T06:28:31;17.20;99.90
12815;DHT22;6472;52.328;13.070;2023-04-24T06:30:59;17.00;99.90
12815;DHT22;6472;52.328;13.070;2023-04-24T06:33:27;16.80;99.90
12815;DHT22;6472;52.328;13.070;2023-04-24T06:35:57;16.80;99.90
12815;DHT22;6472;52.328;13.070;2023-04-24T06:38:25;16.80;99.90
12815;DHT22;6472;52.328;13.070;2023-04-24T06:40:53;16.60;99.90
12815;DHT22;6472;52.328;13.070;2023-04-24T06:43:21;16.10;99.90
12815;DHT22;6472;52.328;13.070;2023-04-24T06:45:49;15.70;99.90
12815;DHT22;6472;52.328;13.070;2023-04-24T06:48:17;15.60;99.90
12815;DHT22;6472;52.328;13.070;2023-04-24T06:50:45;15.60;99.90
12815;DHT22;6472;52.328;13.070;2023-04-24T06:53:15;15.40;99.90
12815;DHT22;6472;52.328;13.070;2023-04-24T06:55:43;15.20;99.90
12815;DHT22;6472;52.328;13.070;2023-04-24T06:58:13;15.20;99.90
12815;DHT22;6472;52.328;13.070;2023-04-24T07:00:42;15.10;99.90
12815;DHT22;6472;52.328;13.070;2023-04-24T07:03:10;15.20;99.90
12815;DHT22;6472;52.328;13.070;2023-04-24T07:05:39;15.20;99.90
12815;DHT22;6472;52.328;13.070;2023-04-24T07:08:08;15.50;99.90
12815;DHT22;6472;52.328;13.070;2023-04-24T07:10:39;15.70;99.90
12815;DHT22;6472;52.328;13.070;2023-04-24T07:13:07;16.00;99.90
12815;DHT22;6472;52.328;13.070;2023-04-24T07:15:36;16.20;99.90
12815;DHT22;6472;52.328;13.070;2023-04-24T07:18:04;16.50;99.90
12815;DHT22;6472;52.328;13.070;2023-04-24T07:20:32;16.50;99.90
12815;DHT22;6472;52.328;13.070;2023-04-24T07:23:01;16.80;99.90
12815;DHT22;6472;52.328;13.070;2023-04-24T07:25:29;17.10;99.90
12815;DHT22;6472;52.328;13.070;2023-04-24T07:27:59;17.70;99.90
12815;DHT22;6472;52.328;13.070;2023-04-24T07:30:27;18.00;99.90
12815;DHT22;6472;52.328;13.070;2023-04-24T07:32:56;18.30;99.90
12815;DHT22;6472;52.328;13.070;2023-04-24T07:35:26;18.40;99.90
12815;DHT22;6472;52.328;13.070;2023-04-24T07:37:54;18.60;99.90
12815;DHT22;6472;52.328;13.070;2023-04-24T07:40:23;18.50;99.90
12815;DHT22;6472;52.328;13.070;2023-04-24T07:42:51;18.40;99.90
12815;DHT22;6472;52.328;13.070;2023-04-24T07:45:20;18.30;99.90
12815;DHT22;6472;52.328;13.070;2023-04-24T07:47:50;18.20;99.90
12815;DHT22;6472;52.328;13.070;2023-04-24T07:50:19;18.30;99.90
12815;DHT22;6472;52.328;13.070;2023-04-24T07:52:47;18.40;99.90
12815;DHT22;6472;52.328;13.070;2023-04-24T07:55:18;18.50;99.90
12815;DHT22;6472;52.328;13.070;2023-04-24T07:57:51;18.80;99.90
12815;DHT22;6472;52.328;13.070;2023-04-24T08:00:21;19.20;99.90
12815;DHT22;6472;52.328;13.070;2023-04-24T08:02:49;19.30;99.90
12815;DHT22;6472;52.328;13.070;2023-04-24T08:05:17;19.20;99.90
12815;DHT22;6472;52.328;13.070;2023-04-24T08:07:45;18.80;99.90
12815;DHT22;6472;52.328;13.070;2023-04-24T08:10:15;18.60;99.90
12815;DHT22;6472;52.328;13.070;2023-04-24T08:12:43;18.50;99.90
12815;DHT22;6472;52.328;13.070;2023-04-24T08:15:11;18.20;99.90
12815;DHT22;6472;52.328;13.070;2023-04-24T08:18:06;18.00;99.90
12815;DHT22;6472;52.328;13.070;2023-04-24T08:20:56;17.90;99.90
12815;DHT22;6472;52.328;13.070;2023-04-24T08:23:28;17.90;99.90
12815;DHT22;6472;52.328;13.070;2023-04-24T08:25:56;17.70;99.90
12815;DHT22;6472;52.328;13.070;2023-04-24T08:28:25;17.40;99.90
12815;DHT22;6472;52.328;13.070;2023-04-24T08:30:53;17.20;99.90
12815;DHT22;6472;52.328;13.070;2023-04-24T08:33:23;17.20;99.90
12815;DHT22;6472;52.328;13.070;2023-04-24T08:35:51;17.40;99.90
12815;DHT22;6472;52.328;13.070;2023-04-24T08:38:20;17.40;99.90
12815;DHT22;6472;52.328;13.070;2023-04-24T08:40:48;17.40;99.90
12815;DHT22;6472;52.328;13.070;2023-04-24T08:43:16;17.20;99.90
12815;DHT22;6472;52.328;13.070;2023-04-24T08:45:44;17.20;99.90
12815;DHT22;6472;52.328;13.070;2023-04-24T08:48:13;17.50;99.90
12815;DHT22;6472;52.328;13.070;2023-04-24T08:50:58;17.80;99.90
12815;DHT22;6472;52.328;13.070;2023-04-24T08:53:26;17.70;99.90
12815;DHT22;6472;52.328;13.070;2023-04-24T08:55:55;17.80;99.90
12815;DHT22;6472;52.328;13.070;2023-04-24T08:58:25;17.60;99.90
12815;DHT22;6472;52.328;13.070;2023-04-24T09:00:54;17.70;99.90
12815;DHT22;6472;52.328;13.070;2023-04-24T09:03:23;17.60;99.90
12815;DHT22;6472;52.328;13.070;2023-04-24T09:05:52;17.80;99.90
12815;DHT22;6472;52.328;13.070;2023-04-24T09:08:24;17.90;99.90
12815;DHT22;6472;52.328;13.070;2023-04-24T09:10:53;17.80;99.90
12815;DHT22;6472;52.328;13.070;2023-04-24T09:13:21;17.90;99.90
12815;DHT22;6472;52.328;13.070;2023-04-24T09:15:49;18.00;99.90
12815;DHT22;6472;52.328;13.070;2023-04-24T09:18:18;18.10;99.90
12815;DHT22;6472;52.328;13.070;2023-04-24T09:21:00;18.40;99.90
12815;DHT22;6472;52.328;13.070;2023-04-24T09:23:31;18.60;99.90
12815;DHT22;6472;52.328;13.070;2023-04-24T09:26:00;18.90;99.90
12815;DHT22;6472;52.328;13.070;2023-04-24T09:28:31;18.70;99.90
12815;DHT22;6472;52.328;13.070;2023-04-24T09:31:03;18.20;99.30
12815;DHT22;6472;52.328;13.070;2023-04-24T09:33:31;18.00;99.90
12815;DHT22;6472;52.328;13.070;2023-04-24T09:35:59;17.90;99.90
12815;DHT22;6472;52.328;13.070;2023-04-24T09:38:33;18.10;99.90
12815;DHT22;6472;52.328;13.070;2023-04-24T09:41:01;18.30;99.90
12815;DHT22;6472;52.328;13.070;2023-04-24T09:43:30;18.20;99.90
12815;DHT22;6472;52.328;13.070;2023-04-24T09:46:05;18.10;99.90
12815;DHT22;6472;52.328;13.070;2023-04-24T09:48:35;18.40;99.90
12815;DHT22;6472;52.328;13.070;2023-04-24T09:51:05;18.70;99.90
12815;DHT22;6472;52.328;13.070;2023-04-24T09:53:35;18.70;99.90
12815;DHT22;6472;52.328;13.070;2023-04-24T09:56:06;18.80;99.90
12815;DHT22;6472;52.328;13.070;2023-04-24T09:58:35;18.60;98.90
12815;DHT22;6472;52.328;13.070;2023-04-24T10:01:03;18.20;99.90
12815;DHT22;6472;52.328;13.070;2023-04-24T10:03:33;17.80;99.90
12815;DHT22;6472;52.328;13.070;2023-04-24T10:06:01;17.70;99.90
12815;DHT22;6472;52.328;13.070;2023-04-24T10:08:37;17.40;99.90
12815;DHT22;6472;52.328;13.070;2023-04-24T10:11:05;17.10;99.90
12815;DHT22;6472;52.328;13.070;2023-04-24T10:13:34;16.70;99.90
12815;DHT22;6472;52.328;13.070;2023-04-24T10:16:03;16.50;99.90
12815;DHT22;6472;52.328;13.070;2023-04-24T10:18:32;16.20;99.90
12815;DHT22;6472;52.328;13.070;2023-04-24T10:21:01;16.30;99.90
12815;DHT22;6472;52.328;13.070;2023-04-24T10:23:30;16.40;99.90
12815;DHT22;6472;52.328;13.070;2023-04-24T10:26:00;16.70;99.90
12815;DHT22;6472;52.328;13.070;2023-04-24T10:28:29;17.20;99.90
12815;DHT22;6472;52.328;13.070;2023-04-24T10:30:58;17.90;99.90
12815;DHT22;6472;52.328;13.070;2023-04-24T10:33:27;18.20;99.90
12815;DHT22;6472;52.328;13.070;2023-04-24T10:35:56;18.30;99.90
12815;DHT22;6472;52.328;13.070;2023-04-24T10:38:26;18.10;99.90
12815;DHT22;6472;52.328;13.070;2023-04-24T10:41:07;18.20;99.90
12815;DHT22;6472;52.328;13.070;2023-04-24T10:43:35;18.10;99.90
12815;DHT22;6472;52.328;13.070;2023-04-24T10:46:04;18.00;99.90
12815;DHT22;6472;52.328;13.070;2023-04-24T10:48:33;17.80;99.90
12815;DHT22;6472;52.328;13.070;2023-04-24T10:51:01;17.50;99.90
12815;DHT22;6472;52.328;13.070;2023-04-24T10:53:30;17.50;99.90
12815;DHT22;6472;52.328;13.070;2023-04-24T10:56:04;17.30;99.90
12815;DHT22;6472;52.328;13.070;2023-04-24T10:58:37;17.10;99.90
12815;DHT22;6472;52.328;13.070;2023-04-24T11:01:06;17.10;99.90
12815;DHT22;6472;52.328;13.070;2023-04-24T11:03:35;17.20;99.90
12815;DHT22;6472;52.328;13.070;2023-04-24T11:06:06;17.10;99.90
12815;DHT22;6472;52.328;13.070;2023-04-24T11:08:38;17.10;99.90
12815;DHT22;6472;52.328;13.070;2023-04-24T11:11:13;17.10;99.90
12815;DHT22;6472;52.328;13.070;2023-04-24T11:14:00;17.10;99.90
12815;DHT22;6472;52.328;13.070;2023-04-24T11:16:29;17.10;99.90
12815;DHT22;6472;52.328;13.070;2023-04-24T11:19:04;17.10;99.90
12815;DHT22;6472;52.328;13.070;2023-04-24T11:21:39;17.20;99.90
12815;DHT22;6472;52.328;13.070;2023-04-24T11:24:25;17.50;99.90
12815;DHT22;6472;52.328;13.070;2023-04-24T11:26:56;17.80;99.90
12815;DHT22;6472;52.328;13.070;2023-04-24T11:29:39;18.00;99.90
12815;DHT22;6472;52.328;13.070;2023-04-24T11:32:26;18.30;99.90
12815;DHT22;6472;52.328;13.070;2023-04-24T11:34:55;18.50;97.40
12815;DHT22;6472;52.328;13.070;2023-04-24T11:37:25;18.60;95.70
12815;DHT22;6472;52.328;13.070;2023-04-24T11:39:56;18.90;93.00
12815;DHT22;6472;52.328;13.070;2023-04-24T11:42:26;19.20;95.40
12815;DHT22;6472;52.328;13.070;2023-04-24T11:44:55;19.40;91.60
12815;DHT22;6472;52.328;13.070;2023-04-24T11:47:30;19.40;92.90
12815;DHT22;6472;52.328;13.070;2023-04-24T11:50:01;19.40;90.30
12815;DHT22;6472;52.328;13.070;2023-04-24T11:52:29;19.40;88.00
12815;DHT22;6472;52.328;13.070;2023-04-24T11:54:57;19.60;88.10
12815;DHT22;6472;52.328;13.070;2023-04-24T11:57:27;19.70;82.90
12815;DHT22;6472;52.328;13.070;2023-04-24T12:00:00;19.60;78.40
12815;DHT22;6472;52.328;13.070;2023-04-24T12:02:30;19.40;76.20
12815;DHT22;6472;52.328;13.070;2023-04-24T12:04:59;19.30;68.70
12815;DHT22;6472;52.328;13.070;2023-04-24T12:07:27;19.30;73.60
12815;DHT22;6472;52.328;13.070;2023-04-24T12:09:56;19.40;73.80
12815;DHT22;6472;52.328;13.070;2023-04-24T12:12:28;19.30;74.40
12815;DHT22;6472;52.328;13.070;2023-04-24T12:14:57;19.20;74.60
12815;DHT22;6472;52.328;13.070;2023-04-24T12:17:27;19.10;73.60
12815;DHT22;6472;52.328;13.070;2023-04-24T12:19:59;19.20;75.10
12815;DHT22;6472;52.328;13.070;2023-04-24T12:22:36;19.40;76.30
12815;DHT22;6472;52.328;13.070;2023-04-24T12:25:10;19.40;74.20
12815;DHT22;6472;52.328;13.070;2023-04-24T12:27:40;19.20;77.80
12815;DHT22;6472;52.328;13.070;2023-04-24T12:30:11;19.00;74.60
12815;DHT22;6472;52.328;13.070;2023-04-24T12:32:43;18.60;72.60
12815;DHT22;6472;52.328;13.070;2023-04-24T12:35:12;18.30;76.70
12815;DHT22;6472;52.328;13.070;2023-04-24T12:37:42;18.20;76.30
12815;DHT22;6472;52.328;13.070;2023-04-24T12:40:14;18.30;74.50
12815;DHT22;6472;52.328;13.070;2023-04-24T12:42:45;18.60;66.40
12815;DHT22;6472;52.328;13.070;2023-04-24T12:45:14;18.40;62.40
12815;DHT22;6472;52.328;13.070;2023-04-24T12:47:43;18.20;63.80
12815;DHT22;6472;52.328;13.070;2023-04-24T12:50:12;18.30;65.40
12815;DHT22;6472;52.328;13.070;2023-04-24T12:52:41;18.30;68.50
12815;DHT22;6472;52.328;13.070;2023-04-24T12:55:10;18.40;69.70
12815;DHT22;6472;52.328;13.070;2023-04-24T12:57:39;18.50;70.90
12815;DHT22;6472;52.328;13.070;2023-04-24T13:00:16;18.70;73.00
12815;DHT22;6472;52.328;13.070;2023-04-24T13:02:59;18.80;74.20
12815;DHT22;6472;52.328;13.070;2023-04-24T13:05:27;19.10;71.10
12815;DHT22;6472;52.328;13.070;2023-04-24T13:07:55;18.80;66.00
12815;DHT22;6472;52.328;13.070;2023-04-24T13:10:23;18.70;67.10
12815;DHT22;6472;52.328;13.070;2023-04-24T13:12:51;18.80;64.80
12815;DHT22;6472;52.328;13.070;2023-04-24T13:15:21;18.70;65.00
12815;DHT22;6472;52.328;13.070;2023-04-24T13:17:49;18.40;65.90
12815;DHT22;6472;52.328;13.070;2023-04-24T13:20:17;18.20;66.70
12815;DHT22;6472;52.328;13.070;2023-04-24T13:22:45;17.90;65.70
12815;DHT22;6472;52.328;13.070;2023-04-24T13:25:13;17.80;66.50
12815;DHT22;6472;52.328;13.070;2023-04-24T13:27:43;17.90;69.60
12815;DHT22;6472;52.328;13.070;2023-04-24T13:30:12;18.30;65.90
12815;DHT22;6472;52.328;13.070;2023-04-24T13:32:41;18.50;62.50
12815;DHT22;6472;52.328;13.070;2023-04-24T13:35:09;18.80;63.10
12815;DHT22;6472;52.328;13.070;2023-04-24T13:37:37;18.70;62.20
12815;DHT22;6472;52.328;13.070;2023-04-24T13:40:06;18.70;63.20
12815;DHT22;6472;52.328;13.070;2023-04-24T13:42:34;18.90;61.70
12815;DHT22;6472;52.328;13.070;2023-04-24T13:45:02;18.70;62.70
12815;DHT22;6472;52.328;13.070;2023-04-24T13:47:52;18.30;64.40
12815;DHT22;6472;52.328;13.070;2023-04-24T13:50:21;18.50;66.10
12815;DHT22;6472;52.328;13.070;2023-04-24T13:52:49;18.70;64.50
12815;DHT22;6472;52.328;13.070;2023-04-24T13:55:17;18.70;62.90
12815;DHT22;6472;52.328;13.070;2023-04-24T13:57:45;18.50;63.30
12815;DHT22;6472;52.328;13.070;2023-04-24T14:00:13;18.40;66.60
12815;DHT22;6472;52.328;13.070;2023-04-24T14:02:42;18.50;63.50
12815;DHT22;6472;52.328;13.070;2023-04-24T14:05:13;18.70;66.90
12815;DHT22;6472;52.328;13.070;2023-04-24T14:07:41;18.80;64.80
12815;DHT22;6472;52.328;13.070;2023-04-24T14:10:10;18.80;63.90
12815;DHT22;6472;52.328;13.070;2023-04-24T14:12:38;18.40;63.50
12815;DHT22;6472;52.328;13.070;2023-04-24T14:15:07;18.30;67.40
12815;DHT22;6472;52.328;13.070;2023-04-24T14:17:36;18.30;64.80
12815;DHT22;6472;52.328;13.070;2023-04-24T14:20:05;18.20;65.20
12815;DHT22;6472;52.328;13.070;2023-04-24T14:22:34;18.10;65.30
12815;DHT22;6472;52.328;13.070;2023-04-24T14:25:03;18.00;65.00
12815;DHT22;6472;52.328;13.070;2023-04-24T14:27:32;17.90;63.60
12815;DHT22;6472;52.328;13.070;2023-04-24T14:30:01;17.70;65.80
12815;DHT22;6472;52.328;13.070;2023-04-24T14:32:29;17.50;67.60
12815;DHT22;6472;52.328;13.070;2023-04-24T14:34:57;17.50;66.40
12815;DHT22;6472;52.328;13.070;2023-04-24T14:37:25;17.70;66.40
12815;DHT22;6472;52.328;13.070;2023-04-24T14:39:55;17.80;66.10
12815;DHT22;6472;52.328;13.070;2023-04-24T14:42:43;17.80;65.60
12815;DHT22;6472;52.328;13.070;2023-04-24T14:45:11;17.40;64.90
12815;DHT22;6472;52.328;13.070;2023-04-24T14:47:39;17.30;66.70
12815;DHT22;6472;52.328;13.070;2023-04-24T14:50:08;17.10;66.60
12815;DHT22;6472;52.328;13.070;2023-04-24T14:52:36;16.70;69.10
12815;DHT22;6472;52.328;13.070;2023-04-24T14:55:06;16.70;69.10
12815;DHT22;6472;52.328;13.070;2023-04-24T14:57:34;16.50;70.60
12815;DHT22;6472;52.328;13.070;2023-04-24T15:00:04;16.40;70.50
12815;DHT22;6472;52.328;13.070;2023-04-24T15:02:35;16.40;70.50
12815;DHT22;6472;52.328;13.070;2023-04-24T15:05:07;16.30;69.60
12815;DHT22;6472;52.328;13.070;2023-04-24T15:07:36;16.20;70.30
12815;DHT22;6472;52.328;13.070;2023-04-24T15:10:07;16.10;69.70
12815;DHT22;6472;52.328;13.070;2023-04-24T15:12:35;16.00;69.20
12815;DHT22;6472;52.328;13.070;2023-04-24T15:15:04;16.00;70.00
12815;DHT22;6472;52.328;13.070;2023-04-24T15:17:32;15.90;70.50
12815;DHT22;6472;52.328;13.070;2023-04-24T15:20:01;15.90;73.30
12815;DHT22;6472;52.328;13.070;2023-04-24T15:22:29;16.00;71.30
12815;DHT22;6472;52.328;13.070;2023-04-24T15:24:57;16.00;71.40
12815;DHT22;6472;52.328;13.070;2023-04-24T15:27:26;16.00;69.50
12815;DHT22;6472;52.328;13.070;2023-04-24T15:29:54;16.30;70.40
12815;DHT22;6472;52.328;13.070;2023-04-24T15:32:22;16.60;69.50
12815;DHT22;6472;52.328;13.070;2023-04-24T15:34:51;16.80;69.20
12815;DHT22;6472;52.328;13.070;2023-04-24T15:37:33;16.90;69.60
12815;DHT22;6472;52.328;13.070;2023-04-24T15:40:01;17.10;68.60
12815;DHT22;6472;52.328;13.070;2023-04-24T15:42:32;17.00;67.70
12815;DHT22;6472;52.328;13.070;2023-04-24T15:45:00;16.80;69.10
12815;DHT22;6472;52.328;13.070;2023-04-24T15:47:28;16.80;70.10
12815;DHT22;6472;52.328;13.070;2023-04-24T15:49:57;16.80;67.90